Time;durP1;ratioP1;P1;durP2;ratioP2;P2;SDS_P1;SDS_P2;PMS_P1;PMS_P2;Temp;Humidity;BMP_temperature;BMP_pressure;BME280_temperature;BME280_humidity;BME280_pressure;Samples;Min_cycle;Max_cycle;Signal;HPM_P1;HPM_P2
2021/10/27 00:00:30;;;;;;;;;;;6.50;1.00;;;;;;5029573;28;19966;-75
2021/10/27 00:02:55;;;;;;;;;;;6.50;1.00;;;;;;5028713;28;19909;-75
2021/10/27 00:05:21;;;;;;;;;;;6.40;1.00;;;;;;5027991;28;19952;-76
2021/10/27 00:07:46;;;;;;;;;;;6.40;1.00;;;;;;5030046;28;19952;-75
2021/10/27 00:10:13;;;;;;;;;;;6.30;1.00;;;;;;5029524;28;19920;-76
2021/10/27 00:12:38;;;;;;;;;;;6.30;1.00;;;;;;5028958;28;19909;-76
2021/10/27 00:15:05;;;;;;;;;;;6.30;1.00;;;;;;5028916;28;19917;-71
2021/10/27 00:17:30;;;;;;;;;;;6.30;1.00;;;;;;5027722;28;19913;-75
2021/10/27 00:19:56;;;;;;;;;;;6.30;1.00;;;;;;5028735;28;19971;-74
2021/10/27 00:22:21;;;;;;;;;;;6.30;1.00;;;;;;5028562;28;19959;-75
2021/10/27 00:24:47;;;;;;;;;;;6.30;1.00;;;;;;5029330;28;20389;-76
2021/10/27 00:27:13;;;;;;;;;;;6.30;1.00;;;;;;5029089;28;19937;-75
2021/10/27 00:29:39;;;;;;;;;;;6.30;1.00;;;;;;5029194;28;20366;-75
2021/10/27 00:32:06;;;;;;;;;;;6.40;1.00;;;;;;5028111;28;19951;-75
2021/10/27 00:34:31;;;;;;;;;;;6.40;1.00;;;;;;5010698;28;19913;-76
2021/10/27 00:36:56;;;;;;;;;;;6.50;1.00;;;;;;5031663;28;20239;-75
2021/10/27 00:39:23;;;;;;;;;;;6.60;1.00;;;;;;5032519;28;19992;-76
2021/10/27 00:41:48;;;;;;;;;;;6.70;1.00;;;;;;5032491;28;20004;-76
2021/10/27 00:44:18;;;;;;;;;;;6.60;1.00;;;;;;5032075;28;20013;-75
2021/10/27 00:46:43;;;;;;;;;;;6.60;1.00;;;;;;5033163;28;19909;-76
2021/10/27 00:49:09;;;;;;;;;;;6.60;1.00;;;;;;5031392;28;20411;-76
2021/10/27 00:51:34;;;;;;;;;;;6.60;1.00;;;;;;5032862;28;19917;-76
2021/10/27 00:54:01;;;;;;;;;;;6.60;1.00;;;;;;5031865;28;19919;-76
2021/10/27 00:56:28;;;;;;;;;;;6.70;1.00;;;;;;5032918;28;19929;-76
2021/10/27 00:58:53;;;;;;;;;;;6.70;1.00;;;;;;5032009;28;19913;-75
2021/10/27 01:01:19;;;;;;;;;;;6.70;1.00;;;;;;5030461;28;19916;-74
2021/10/27 01:03:44;;;;;;;;;;;6.60;1.00;;;;;;5030123;28;19941;-74
2021/10/27 01:06:10;;;;;;;;;;;6.60;1.00;;;;;;5032565;28;19917;-76
2021/10/27 01:08:36;;;;;;;;;;;6.60;1.00;;;;;;5032230;28;19909;-75
2021/10/27 01:11:03;;;;;;;;;;;6.50;1.00;;;;;;5032139;28;19909;-75
2021/10/27 01:13:28;;;;;;;;;;;6.50;1.00;;;;;;5031031;28;20303;-73
2021/10/27 01:15:54;;;;;;;;;;;6.50;1.00;;;;;;5017480;28;20000;-76
2021/10/27 01:18:19;;;;;;;;;;;6.50;1.00;;;;;;5032289;28;19916;-74
2021/10/27 01:20:45;;;;;;;;;;;6.50;1.00;;;;;;5030796;28;19917;-76
2021/10/27 01:23:10;;;;;;;;;;;6.40;1.00;;;;;;5031550;28;19914;-76
2021/10/27 01:25:36;;;;;;;;;;;6.30;1.00;;;;;;5031648;28;19913;-76
2021/10/27 01:28:02;;;;;;;;;;;6.30;1.00;;;;;;5032071;28;20359;-75
2021/10/27 01:30:28;;;;;;;;;;;6.20;1.00;;;;;;5030244;28;20698;-74
2021/10/27 01:32:53;;;;;;;;;;;6.10;1.00;;;;;;5030717;28;19917;-76
2021/10/27 01:35:19;;;;;;;;;;;6.00;1.00;;;;;;5031061;28;19955;-76
2021/10/27 01:37:45;;;;;;;;;;;6.00;1.00;;;;;;5031601;28;20293;-76
2021/10/27 01:40:20;;;;;;;;;;;5.90;1.00;;;;;;5031929;28;20015;-76
2021/10/27 01:42:45;;;;;;;;;;;5.90;1.00;;;;;;5031002;28;19920;-76
2021/10/27 01:45:11;;;;;;;;;;;5.80;1.00;;;;;;5031393;28;19921;-76
2021/10/27 01:47:40;;;;;;;;;;;5.80;1.00;;;;;;5030731;28;19920;-75
2021/10/27 01:50:06;;;;;;;;;;;5.80;1.00;;;;;;5030578;28;20378;-76
2021/10/27 01:52:31;;;;;;;;;;;5.80;1.00;;;;;;5030862;28;19916;-75
2021/10/27 01:54:57;;;;;;;;;;;5.80;1.00;;;;;;5031926;28;20289;-78
2021/10/27 01:57:22;;;;;;;;;;;5.80;1.00;;;;;;5031595;28;20006;-74
2021/10/27 01:59:48;;;;;;;;;;;5.70;1.00;;;;;;5013149;28;20059;-75
2021/10/27 02:02:13;;;;;;;;;;;5.70;1.00;;;;;;5030185;28;19928;-75
2021/10/27 02:04:39;;;;;;;;;;;5.70;1.00;;;;;;5030545;28;20459;-75
2021/10/27 02:07:04;;;;;;;;;;;5.60;1.00;;;;;;5031445;28;20018;-75
2021/10/27 02:09:31;;;;;;;;;;;5.60;1.00;;;;;;5031062;28;19920;-76
2021/10/27 02:11:56;;;;;;;;;;;5.60;1.00;;;;;;5030091;28;19944;-74
2021/10/27 02:14:22;;;;;;;;;;;5.60;1.00;;;;;;5030844;28;20298;-75
2021/10/27 02:16:48;;;;;;;;;;;5.60;1.00;;;;;;5031360;28;20355;-74
2021/10/27 02:19:13;;;;;;;;;;;5.60;1.00;;;;;;5032409;28;20016;-74
2021/10/27 02:21:39;;;;;;;;;;;5.60;1.00;;;;;;5050848;28;19996;-74
2021/10/27 02:24:05;;;;;;;;;;;5.50;1.00;;;;;;5035959;28;19913;-75
2021/10/27 02:26:30;;;;;;;;;;;5.50;1.00;;;;;;5030804;28;20003;-75
2021/10/27 02:28:56;;;;;;;;;;;5.60;1.00;;;;;;5030931;28;20004;-75
2021/10/27 02:31:21;;;;;;;;;;;5.60;1.00;;;;;;5031727;28;20007;-74
2021/10/27 02:33:47;;;;;;;;;;;5.60;1.00;;;;;;5028786;28;19913;-76
2021/10/27 02:36:13;;;;;;;;;;;5.60;1.00;;;;;;5030260;28;20485;-75
2021/10/27 02:38:41;;;;;;;;;;;5.60;1.00;;;;;;5030235;28;19913;-76
2021/10/27 02:41:07;;;;;;;;;;;5.60;1.00;;;;;;5030424;28;19916;-75
2021/10/27 02:43:33;;;;;;;;;;;5.70;1.00;;;;;;5029853;28;19913;-75
2021/10/27 02:45:58;;;;;;;;;;;5.70;1.00;;;;;;5030338;28;20342;-76
2021/10/27 02:48:24;;;;;;;;;;;5.80;1.00;;;;;;5029665;28;20007;-75
2021/10/27 02:50:49;;;;;;;;;;;5.80;1.00;;;;;;5029803;28;20393;-76
2021/10/27 02:53:15;;;;;;;;;;;5.80;1.00;;;;;;5030183;28;19909;-76
2021/10/27 02:55:41;;;;;;;;;;;5.90;1.00;;;;;;5030425;28;19920;-75
2021/10/27 02:58:06;;;;;;;;;;;5.90;1.00;;;;;;5030903;28;19921;-75
2021/10/27 03:00:32;;;;;;;;;;;5.90;1.00;;;;;;5028393;28;19924;-75
2021/10/27 03:02:57;;;;;;;;;;;5.90;1.00;;;;;;5029589;28;19988;-78
2021/10/27 03:05:23;;;;;;;;;;;5.90;1.00;;;;;;5030295;28;19910;-76
2021/10/27 03:07:49;;;;;;;;;;;5.90;1.00;;;;;;5031354;28;20051;-77
2021/10/27 03:10:15;;;;;;;;;;;5.90;1.00;;;;;;5029747;28;20035;-75
2021/10/27 03:12:41;;;;;;;;;;;5.90;1.00;;;;;;5029086;28;19963;-75
2021/10/27 03:15:07;;;;;;;;;;;5.90;1.00;;;;;;5029418;28;19916;-76
2021/10/27 03:17:32;;;;;;;;;;;5.90;1.00;;;;;;5029745;28;20004;-76
2021/10/27 03:19:58;;;;;;;;;;;5.90;1.00;;;;;;5037412;28;20382;-75
2021/10/27 03:22:23;;;;;;;;;;;5.90;1.00;;;;;;5049345;28;19908;-76
2021/10/27 03:24:49;;;;;;;;;;;5.90;1.00;;;;;;5029979;28;19913;-76
2021/10/27 03:27:15;;;;;;;;;;;5.90;1.00;;;;;;5029873;28;20258;-74
2021/10/27 03:29:41;;;;;;;;;;;5.90;1.00;;;;;;5029144;28;19928;-76
2021/10/27 03:32:06;;;;;;;;;;;5.90;1.00;;;;;;5028585;28;19913;-75
2021/10/27 03:34:32;;;;;;;;;;;5.90;1.00;;;;;;5028515;28;19932;-76
2021/10/27 03:36:57;;;;;;;;;;;6.00;1.00;;;;;;5029636;28;20000;-75
2021/10/27 03:39:23;;;;;;;;;;;6.00;1.00;;;;;;5028977;28;19917;-76
2021/10/27 03:41:48;;;;;;;;;;;6.00;1.00;;;;;;5029050;28;19921;-76
2021/10/27 03:44:14;;;;;;;;;;;6.00;1.00;;;;;;5028845;28;19913;-74
2021/10/27 03:46:40;;;;;;;;;;;6.00;1.00;;;;;;5029418;28;19991;-76
2021/10/27 03:49:05;;;;;;;;;;;5.90;1.00;;;;;;5027671;28;20020;-76
2021/10/27 03:51:31;;;;;;;;;;;5.90;1.00;;;;;;5029701;28;20008;-76
2021/10/27 03:53:56;;;;;;;;;;;5.90;1.00;;;;;;5028408;28;19909;-76
2021/10/27 03:56:22;;;;;;;;;;;5.90;1.00;;;;;;5029735;28;19909;-75
2021/10/27 03:58:47;;;;;;;;;;;5.90;1.00;;;;;;5027928;28;19913;-76
2021/10/27 04:01:13;;;;;;;;;;;5.90;1.00;;;;;;5028853;28;20103;-76
2021/10/27 04:03:38;;;;;;;;;;;5.90;1.00;;;;;;5027284;28;19909;-76
2021/10/27 04:06:04;;;;;;;;;;;5.80;1.00;;;;;;5029331;28;19920;-75
2021/10/27 04:08:30;;;;;;;;;;;5.80;1.00;;;;;;5023236;28;19913;-76
2021/10/27 04:10:56;;;;;;;;;;;5.80;1.00;;;;;;5028692;28;19956;-76
2021/10/27 04:13:25;;;;;;;;;;;5.80;1.00;;;;;;5026354;28;19932;-76
2021/10/27 04:15:51;;;;;;;;;;;5.90;1.00;;;;;;5028550;28;19998;-74
2021/10/27 04:18:16;;;;;;;;;;;5.90;1.00;;;;;;5026850;28;19971;-75
2021/10/27 04:20:42;;;;;;;;;;;5.90;1.00;;;;;;5027835;28;19940;-76
2021/10/27 04:23:08;;;;;;;;;;;5.90;1.00;;;;;;5027922;28;19995;-76
2021/10/27 04:25:33;;;;;;;;;;;5.90;1.00;;;;;;5023899;28;20006;-75
2021/10/27 04:27:59;;;;;;;;;;;5.90;1.00;;;;;;5013483;28;19909;-75
2021/10/27 04:30:25;;;;;;;;;;;5.80;1.00;;;;;;5017319;28;19917;-75
2021/10/27 04:32:50;;;;;;;;;;;5.70;1.00;;;;;;5027435;28;19913;-75
2021/10/27 04:35:16;;;;;;;;;;;5.80;1.00;;;;;;5027868;28;19909;-76
2021/10/27 04:37:44;;;;;;;;;;;5.70;1.00;;;;;;5013130;28;19921;-76
2021/10/27 04:40:11;;;;;;;;;;;5.70;1.00;;;;;;5026803;28;20016;-75
2021/10/27 04:42:37;;;;;;;;;;;5.80;1.00;;;;;;5004726;28;19917;-76
2021/10/27 04:45:03;;;;;;;;;;;5.80;1.00;;;;;;5025747;28;19910;-76
2021/10/27 04:47:29;;;;;;;;;;;5.80;1.00;;;;;;5026580;28;20015;-76
2021/10/27 04:49:54;;;;;;;;;;;5.70;1.00;;;;;;5025366;28;20415;-75
2021/10/27 04:52:20;;;;;;;;;;;5.80;1.00;;;;;;5025556;28;20062;-75
2021/10/27 04:54:45;;;;;;;;;;;5.80;1.00;;;;;;5025696;28;19916;-75
2021/10/27 04:57:11;;;;;;;;;;;5.80;1.00;;;;;;5008129;28;19971;-75
2021/10/27 04:59:42;;;;;;;;;;;5.80;1.00;;;;;;5025527;28;19957;-75
2021/10/27 05:02:08;;;;;;;;;;;5.80;1.00;;;;;;5026276;28;19963;-76
2021/10/27 05:04:35;;;;;;;;;;;5.80;1.00;;;;;;5026057;28;19921;-76
2021/10/27 05:07:00;;;;;;;;;;;5.80;1.00;;;;;;5027232;28;19916;-76
2021/10/27 05:09:27;;;;;;;;;;;5.80;1.00;;;;;;5024592;28;20285;-77
2021/10/27 05:11:53;;;;;;;;;;;5.80;1.00;;;;;;5027524;28;19913;-77
2021/10/27 05:14:21;;;;;;;;;;;5.80;1.00;;;;;;5026945;28;20004;-76
2021/10/27 05:16:46;;;;;;;;;;;5.80;1.00;;;;;;5025663;28;19917;-77
2021/10/27 05:19:12;;;;;;;;;;;5.90;1.00;;;;;;5023344;28;19920;-76
2021/10/27 05:21:37;;;;;;;;;;;5.90;1.00;;;;;;5025337;28;19917;-77
2021/10/27 05:24:03;;;;;;;;;;;5.90;1.00;;;;;;5027745;28;20205;-76
2021/10/27 05:26:29;;;;;;;;;;;5.90;1.00;;;;;;5028982;28;20442;-75
2021/10/27 05:28:55;;;;;;;;;;;6.00;1.00;;;;;;5027948;28;20388;-76
2021/10/27 05:31:21;;;;;;;;;;;6.00;1.00;;;;;;5011310;28;19909;-76
2021/10/27 05:33:46;;;;;;;;;;;6.00;1.00;;;;;;5028008;28;19962;-75
2021/10/27 05:36:13;;;;;;;;;;;6.00;1.00;;;;;;5028828;28;20311;-76
2021/10/27 05:38:38;;;;;;;;;;;6.10;1.00;;;;;;5027988;28;19925;-77
2021/10/27 05:41:05;;;;;;;;;;;6.10;1.00;;;;;;5009472;28;20310;-76
2021/10/27 05:43:31;;;;;;;;;;;6.10;1.00;;;;;;5009111;28;19909;-76
2021/10/27 05:45:57;;;;;;;;;;;6.10;1.00;;;;;;4992021;28;20621;-77
2021/10/27 05:48:27;;;;;;;;;;;6.10;1.00;;;;;;5009311;28;20000;-76
2021/10/27 05:56:21;;;;;;;;;;;6.20;1.00;;;;;;5009694;28;19916;-77
2021/10/27 05:58:47;;;;;;;;;;;6.20;1.00;;;;;;5009358;28;19936;-75
2021/10/27 06:01:13;;;;;;;;;;;6.20;1.00;;;;;;5009007;28;20275;-77
2021/10/27 06:03:38;;;;;;;;;;;6.20;1.00;;;;;;5007391;28;19917;-77
2021/10/27 06:06:04;;;;;;;;;;;6.20;1.00;;;;;;4991496;28;19924;-76
2021/10/27 06:08:29;;;;;;;;;;;6.20;1.00;;;;;;5009418;28;19909;-75
2021/10/27 06:10:58;;;;;;;;;;;6.20;1.00;;;;;;5009110;28;19936;-74
2021/10/27 06:13:31;;;;;;;;;;;6.20;1.00;;;;;;5008689;28;20263;-78
2021/10/27 06:15:57;;;;;;;;;;;6.20;1.00;;;;;;5037707;28;19959;-76
2021/10/27 06:18:23;;;;;;;;;;;6.20;1.00;;;;;;5048034;28;19940;-75
2021/10/27 06:20:49;;;;;;;;;;;6.30;1.00;;;;;;5047675;28;19927;-76
2021/10/27 06:23:14;;;;;;;;;;;6.30;1.00;;;;;;5026002;28;19913;-76
2021/10/27 06:25:40;;;;;;;;;;;6.40;1.00;;;;;;5028143;28;19924;-76
2021/10/27 06:28:11;;;;;;;;;;;6.40;1.00;;;;;;5028337;28;19940;-77
2021/10/27 06:36:04;;;;;;;;;;;6.60;1.00;;;;;;5052534;28;20010;-76
2021/10/27 06:46:37;;;;;;;;;;;6.70;1.00;;;;;;5032859;28;19920;-76
2021/10/27 06:49:02;;;;;;;;;;;6.80;1.00;;;;;;5032616;28;19951;-77
2021/10/27 06:51:29;;;;;;;;;;;6.70;1.00;;;;;;5032110;28;19984;-76
2021/10/27 06:53:54;;;;;;;;;;;6.70;1.00;;;;;;5031080;28;19916;-76
2021/10/27 06:56:22;;;;;;;;;;;6.80;1.00;;;;;;5033050;28;19913;-75
2021/10/27 07:15:07;;;;;;;;;;;7.20;1.00;;;;;;5037499;28;19965;-77
2021/10/27 07:17:32;;;;;;;;;;;7.30;1.00;;;;;;5051751;28;19909;-76
2021/10/27 07:19:58;;;;;;;;;;;7.30;1.00;;;;;;5052604;28;19923;-79
2021/10/27 07:22:24;;;;;;;;;;;7.40;1.00;;;;;;5053758;28;19919;-78
2021/10/27 07:24:50;;;;;;;;;;;7.50;1.00;;;;;;5053903;28;20326;-79
2021/10/27 07:27:15;;;;;;;;;;;7.40;1.00;;;;;;5055255;28;19908;-77
2021/10/27 07:29:45;;;;;;;;;;;7.40;1.00;;;;;;5053351;28;19917;-76
2021/10/27 07:32:12;;;;;;;;;;;7.30;1.00;;;;;;5032413;28;19981;-78
2021/10/27 07:34:41;;;;;;;;;;;7.40;1.00;;;;;;5049997;28;19952;-77
2021/10/27 07:39:56;;;;;;;;;;;7.60;1.00;;;;;;5050836;28;20265;-77
2021/10/27 07:42:23;;;;;;;;;;;7.80;1.00;;;;;;5050491;28;20003;-77
2021/10/27 07:44:48;;;;;;;;;;;7.90;1.00;;;;;;5050631;28;19912;-77
2021/10/27 07:49:59;;;;;;;;;;;8.00;1.00;;;;;;5058070;28;19955;-76
2021/10/27 07:52:25;;;;;;;;;;;8.10;1.00;;;;;;5030626;28;20349;-76
2021/10/27 07:54:50;;;;;;;;;;;8.10;1.00;;;;;;5055267;28;20357;-76
2021/10/27 07:57:16;;;;;;;;;;;8.20;1.00;;;;;;5050033;28;19909;-78
2021/10/27 07:59:41;;;;;;;;;;;8.30;99.90;;;;;;5052841;28;19912;-78
2021/10/27 08:02:07;;;;;;;;;;;8.40;99.90;;;;;;5052933;28;19912;-77
2021/10/27 08:04:33;;;;;;;;;;;8.50;99.90;;;;;;5053251;28;19932;-78
2021/10/27 08:06:58;;;;;;;;;;;8.60;99.90;;;;;;5050814;28;20039;-77
2021/10/27 08:09:24;;;;;;;;;;;8.80;95.30;;;;;;5049721;28;19908;-77
2021/10/27 08:11:50;;;;;;;;;;;8.80;1.00;;;;;;5049567;28;19952;-74
2021/10/27 08:14:15;;;;;;;;;;;8.90;1.00;;;;;;5049454;28;19913;-77
2021/10/27 08:16:41;;;;;;;;;;;9.00;1.00;;;;;;5049329;28;19920;-76
2021/10/27 08:19:07;;;;;;;;;;;9.00;1.00;;;;;;5049461;28;19909;-76
2021/10/27 08:21:34;;;;;;;;;;;9.20;99.90;;;;;;5049312;28;19908;-76
2021/10/27 08:24:00;;;;;;;;;;;9.30;1.00;;;;;;5049383;28;20387;-76
2021/10/27 08:26:26;;;;;;;;;;;9.40;99.90;;;;;;5031714;28;19909;-76
2021/10/27 08:28:58;;;;;;;;;;;9.40;99.90;;;;;;5050049;28;20210;-76
2021/10/27 08:34:07;;;;;;;;;;;9.60;99.90;;;;;;5049051;28;19917;-76
2021/10/27 08:36:33;;;;;;;;;;;9.50;99.90;;;;;;5048999;28;19913;-76
2021/10/27 08:39:01;;;;;;;;;;;9.60;99.90;;;;;;5049193;28;19954;-76
2021/10/27 08:41:27;;;;;;;;;;;9.70;99.90;;;;;;5049306;28;19909;-77
2021/10/27 08:43:52;;;;;;;;;;;9.90;1.00;;;;;;5048763;28;19913;-77
2021/10/27 08:46:18;;;;;;;;;;;10.00;1.00;;;;;;5049210;28;19924;-76
2021/10/27 08:48:49;;;;;;;;;;;9.90;99.90;;;;;;5049269;28;19913;-76
2021/10/27 08:51:15;;;;;;;;;;;10.00;99.90;;;;;;5048650;28;19909;-76
2021/10/27 08:53:41;;;;;;;;;;;10.00;99.90;;;;;;5048910;28;20381;-76
2021/10/27 08:56:07;;;;;;;;;;;10.00;99.90;;;;;;5049132;28;19908;-76
2021/10/27 08:58:57;;;;;;;;;;;10.00;99.90;;;;;;5033665;28;20348;-76
2021/10/27 09:06:58;;;;;;;;;;;10.10;99.90;;;;;;5052839;28;20391;-77
2021/10/27 09:09:46;;;;;;;;;;;10.20;99.90;;;;;;5053669;28;19916;-77
2021/10/27 09:15:23;;;;;;;;;;;10.30;29.60;;;;;;5051433;28;20460;-76
2021/10/27 09:40:34;;;;;;;;;;;10.30;99.90;;;;;;5044966;28;19952;-75
2021/10/27 09:43:09;;;;;;;;;;;10.20;1.00;;;;;;5052315;28;20494;-77
2021/10/27 10:05:00;;;;;;;;;;;10.60;99.90;;;;;;5054866;28;19959;-77
2021/10/27 10:07:27;;;;;;;;;;;10.70;99.90;;;;;;5056538;28;19912;-76
2021/10/27 10:09:53;;;;;;;;;;;10.80;1.00;;;;;;5052808;28;19909;-77
2021/10/27 10:12:18;;;;;;;;;;;10.90;1.00;;;;;;5052989;28;19913;-76
2021/10/27 10:14:49;;;;;;;;;;;10.90;1.00;;;;;;5052126;28;19909;-75
2021/10/27 10:17:15;;;;;;;;;;;11.00;1.00;;;;;;5051319;28;19916;-76
2021/10/27 10:19:42;;;;;;;;;;;11.00;99.90;;;;;;5051829;28;20782;-75
2021/10/27 10:22:28;;;;;;;;;;;11.00;1.00;;;;;;5051368;28;20304;-76
2021/10/27 10:24:54;;;;;;;;;;;11.00;1.00;;;;;;5042752;28;19908;-76
2021/10/27 10:27:38;;;;;;;;;;;11.40;1.00;;;;;;5033393;28;19908;-77
2021/10/27 10:30:22;;;;;;;;;;;11.40;99.90;;;;;;5051177;28;19963;-76
2021/10/27 10:32:58;;;;;;;;;;;11.30;99.90;;;;;;5051969;28;20129;-78
2021/10/27 10:35:33;;;;;;;;;;;11.10;99.90;;;;;;5050592;28;19976;-77
2021/10/27 11:00:13;;;;;;;;;;;12.00;1.00;;;;;;5050790;28;20087;-76
2021/10/27 11:24:30;;;;;;;;;;;12.40;99.90;;;;;;5050351;28;19920;-77
2021/10/27 11:27:09;;;;;;;;;;;12.40;99.90;;;;;;5050694;28;20000;-77
2021/10/27 11:38:06;;;;;;;;;;;13.20;99.90;;;;;;5055900;28;19924;-77
2021/10/27 11:40:39;;;;;;;;;;;13.40;1.00;;;;;;5057129;28;20008;-75
2021/10/27 11:43:18;;;;;;;;;;;13.60;1.00;;;;;;5054453;28;19952;-76
2021/10/27 11:50:58;;;;;;;;;;;14.30;1.00;;;;;;5050386;28;19948;-76
2021/10/27 11:53:31;;;;;;;;;;;14.50;1.00;;;;;;5052068;28;19908;-75
2021/10/27 11:55:58;;;;;;;;;;;14.80;1.00;;;;;;5050236;28;19916;-76
2021/10/27 11:58:41;;;;;;;;;;;15.30;1.00;;;;;;5050079;28;19913;-76
2021/10/27 12:01:07;;;;;;;;;;;15.70;1.00;;;;;;5047710;28;19917;-76
2021/10/27 12:03:37;;;;;;;;;;;15.80;1.00;;;;;;5049058;28;20854;-74
2021/10/27 12:06:10;;;;;;;;;;;16.10;1.00;;;;;;5031080;28;19909;-74
2021/10/27 12:19:05;;;;;;;;;;;15.90;99.90;;;;;;5049521;28;19909;-74
2021/10/27 12:21:32;;;;;;;;;;;15.70;99.90;;;;;;5054487;28;19916;-74
2021/10/27 12:24:02;;;;;;;;;;;15.10;99.90;;;;;;5048041;28;19924;-75
2021/10/27 12:26:39;;;;;;;;;;;14.90;99.90;;;;;;5065446;28;19917;-77
2021/10/27 12:29:11;;;;;;;;;;;14.60;1.00;;;;;;5050154;28;19920;-75
2021/10/27 12:31:37;;;;;;;;;;;14.30;1.00;;;;;;5071686;22;19925;-74
2021/10/27 12:34:16;;;;;;;;;;;13.90;1.00;;;;;;5031721;28;19909;-73
2021/10/27 12:36:42;;;;;;;;;;;13.80;1.00;;;;;;5026661;28;19915;-75
2021/10/27 12:42:03;;;;;;;;;;;14.30;1.00;;;;;;5016947;28;19909;-74
2021/10/27 12:44:29;;;;;;;;;;;14.70;1.00;;;;;;5012144;28;19959;-73
2021/10/27 12:47:20;;;;;;;;;;;14.70;1.00;;;;;;5027009;28;20312;-74
2021/10/27 12:49:47;;;;;;;;;;;14.90;1.00;;;;;;5026490;28;19924;-74
2021/10/27 12:52:25;;;;;;;;;;;14.50;1.00;;;;;;5031585;28;19909;-74
2021/10/27 12:55:10;;;;;;;;;;;14.40;1.00;;;;;;5032909;28;19909;-73
2021/10/27 12:58:06;;;;;;;;;;;14.30;1.00;;;;;;5032830;28;19909;-75
2021/10/27 13:04:03;;;;;;;;;;;14.30;1.00;;;;;;4951217;29;19923;-74
2021/10/27 13:06:36;;;;;;;;;;;14.20;1.00;;;;;;4950792;29;20593;-73
2021/10/27 13:32:18;;;;;;;;;;;14.50;1.00;;;;;;4950827;29;19957;-74
2021/10/27 13:34:44;;;;;;;;;;;14.40;1.00;;;;;;4998357;28;20365;-74
2021/10/27 13:37:10;;;;;;;;;;;14.40;1.00;;;;;;5031545;28;19917;-74
2021/10/27 13:39:36;;;;;;;;;;;14.20;1.00;;;;;;5031806;28;19917;-75
2021/10/27 13:42:08;;;;;;;;;;;14.20;1.00;;;;;;5031501;28;20358;-73
2021/10/27 13:44:40;;;;;;;;;;;14.30;1.00;;;;;;5030771;28;19909;-75
2021/10/27 14:08:30;;;;;;;;;;;13.30;36.80;;;;;;5032239;28;19955;-74
2021/10/27 14:11:18;;;;;;;;;;;13.20;11.50;;;;;;5031871;28;19920;-74
2021/10/27 14:40:44;;;;;;;;;;;12.30;1.00;;;;;;5031350;28;19924;-76
2021/10/27 14:58:48;;;;;;;;;;;12.20;99.90;;;;;;5031697;28;20007;-76
2021/10/27 15:21:19;;;;;;;;;;;11.90;1.00;;;;;;5030053;28;20424;-76
2021/10/27 15:34:58;;;;;;;;;;;11.70;1.00;;;;;;5030536;28;19916;-76
2021/10/27 15:40:34;;;;;;;;;;;11.50;1.00;;;;;;5030818;28;19920;-77
2021/10/27 15:51:07;;;;;;;;;;;11.10;1.00;;;;;;4959019;28;19911;-75
2021/10/27 15:53:34;;;;;;;;;;;11.00;1.00;;;;;;5030510;28;19909;-76
2021/10/27 15:55:59;;;;;;;;;;;10.90;1.00;;;;;;5031371;28;19967;-75
2021/10/27 15:58:25;;;;;;;;;;;10.90;1.00;;;;;;5029231;28;19909;-77
2021/10/27 16:00:50;;;;;;;;;;;10.80;1.00;;;;;;5023790;28;19945;-75
2021/10/27 16:03:17;;;;;;;;;;;10.70;1.00;;;;;;5011491;28;19910;-75
2021/10/27 16:05:45;;;;;;;;;;;10.60;1.00;;;;;;5014424;28;19909;-74
2021/10/27 16:08:12;;;;;;;;;;;10.50;1.00;;;;;;5014883;28;19971;-75
2021/10/27 16:10:37;;;;;;;;;;;10.40;1.00;;;;;;5014727;28;19948;-76
2021/10/27 16:13:04;;;;;;;;;;;10.40;1.00;;;;;;5015700;28;20334;-77
2021/10/27 16:15:52;;;;;;;;;;;10.30;1.00;;;;;;5024434;28;19980;-75
2021/10/27 16:18:18;;;;;;;;;;;10.20;1.00;;;;;;5031696;28;19976;-76
2021/10/27 16:20:44;;;;;;;;;;;10.20;1.00;;;;;;5030980;28;19979;-76
2021/10/27 16:23:11;;;;;;;;;;;10.10;1.00;;;;;;5030616;28;19910;-75
2021/10/27 16:25:36;;;;;;;;;;;10.00;1.00;;;;;;5031019;28;19909;-75
2021/10/27 16:28:02;;;;;;;;;;;10.00;1.00;;;;;;5032166;28;19981;-77
2021/10/27 16:30:28;;;;;;;;;;;9.90;1.00;;;;;;5030317;28;20727;-76
2021/10/27 16:32:54;;;;;;;;;;;9.80;1.00;;;;;;5030603;28;19909;-74
2021/10/27 16:35:20;;;;;;;;;;;9.70;1.00;;;;;;5030361;28;20322;-76
2021/10/27 16:37:46;;;;;;;;;;;9.70;1.00;;;;;;5029898;28;19944;-76
2021/10/27 16:40:11;;;;;;;;;;;9.60;1.00;;;;;;5031066;28;19971;-76
2021/10/27 16:42:37;;;;;;;;;;;9.50;1.00;;;;;;5031062;28;19921;-75
2021/10/27 16:45:04;;;;;;;;;;;9.50;1.00;;;;;;5031358;28;19913;-76
2021/10/27 16:47:31;;;;;;;;;;;9.50;1.00;;;;;;5031646;28;19948;-76
2021/10/27 16:49:57;;;;;;;;;;;9.40;1.00;;;;;;5030343;28;20341;-76
2021/10/27 16:52:22;;;;;;;;;;;9.40;1.00;;;;;;5030002;28;19909;-76
2021/10/27 16:54:48;;;;;;;;;;;9.30;1.00;;;;;;5030938;28;19917;-76
2021/10/27 16:57:15;;;;;;;;;;;9.30;1.00;;;;;;5030120;28;20398;-76
2021/10/27 16:59:40;;;;;;;;;;;9.30;1.00;;;;;;5029598;28;19964;-76
2021/10/27 17:02:06;;;;;;;;;;;9.20;1.00;;;;;;5029930;28;19979;-76
2021/10/27 17:04:32;;;;;;;;;;;9.10;1.00;;;;;;5030762;28;20402;-76
2021/10/27 17:06:57;;;;;;;;;;;9.10;1.00;;;;;;5029921;28;20008;-76
2021/10/27 17:09:23;;;;;;;;;;;9.00;1.00;;;;;;5030518;28;19923;-75
2021/10/27 17:11:49;;;;;;;;;;;9.00;1.00;;;;;;5030226;28;19921;-76
2021/10/27 17:14:14;;;;;;;;;;;8.90;1.00;;;;;;5030893;28;19914;-75
2021/10/27 17:16:40;;;;;;;;;;;8.90;1.00;;;;;;5008299;28;19956;-76
2021/10/27 17:19:05;;;;;;;;;;;8.90;1.00;;;;;;5015890;28;20009;-76
2021/10/27 17:21:31;;;;;;;;;;;8.80;1.00;;;;;;5014359;28;19913;-77
2021/10/27 17:24:00;;;;;;;;;;;8.80;1.00;;;;;;5010098;28;19909;-77
2021/10/27 17:26:26;;;;;;;;;;;8.70;1.00;;;;;;5035362;28;19920;-75
2021/10/27 17:28:51;;;;;;;;;;;8.70;1.00;;;;;;5035713;28;19917;-76
2021/10/27 17:31:17;;;;;;;;;;;8.70;1.00;;;;;;5033852;28;20001;-76
2021/10/27 17:33:43;;;;;;;;;;;8.70;1.00;;;;;;5034738;28;20003;-76
2021/10/27 17:36:10;;;;;;;;;;;8.60;1.00;;;;;;5034173;28;19913;-75
2021/10/27 17:38:36;;;;;;;;;;;8.60;1.00;;;;;;5035689;28;19998;-76
2021/10/27 17:41:01;;;;;;;;;;;8.50;1.00;;;;;;5035638;28;20682;-75
2021/10/27 17:43:27;;;;;;;;;;;8.50;1.00;;;;;;5035096;28;20016;-76
2021/10/27 17:45:53;;;;;;;;;;;8.50;1.00;;;;;;5034777;28;19916;-75
2021/10/27 17:50:58;;;;;;;;;;;8.40;1.00;;;;;;5034404;28;19909;-76
2021/10/27 17:58:36;;;;;;;;;;;8.40;1.00;;;;;;5034430;28;19955;-76
2021/10/27 18:01:05;;;;;;;;;;;8.30;1.00;;;;;;5033159;28;19917;-75
2021/10/27 18:03:32;;;;;;;;;;;8.30;1.00;;;;;;5033153;28;19913;-75
2021/10/27 18:05:58;;;;;;;;;;;8.30;1.00;;;;;;5032140;28;20690;-76
2021/10/27 18:08:25;;;;;;;;;;;8.30;1.00;;;;;;5033546;28;20249;-77
2021/10/27 18:10:54;;;;;;;;;;;8.30;1.00;;;;;;5033920;28;19913;-76
2021/10/27 18:13:24;;;;;;;;;;;8.30;1.00;;;;;;5024813;28;19913;-75
2021/10/27 18:15:53;;;;;;;;;;;8.30;1.00;;;;;;5033375;28;20426;-76
2021/10/27 18:18:27;;;;;;;;;;;8.30;1.00;;;;;;5029513;28;19975;-77
2021/10/27 18:20:53;;;;;;;;;;;8.20;1.00;;;;;;5031241;28;19925;-77
2021/10/27 18:37:08;;;;;;;;;;;8.10;1.00;;;;;;5070021;28;20031;-76
2021/10/27 18:39:45;;;;;;;;;;;8.10;1.00;;;;;;5067488;28;19916;-76
2021/10/27 18:42:13;;;;;;;;;;;8.10;1.00;;;;;;5071477;28;19917;-75
2021/10/27 18:44:38;;;;;;;;;;;8.00;1.00;;;;;;5070187;28;20349;-74
2021/10/27 18:47:05;;;;;;;;;;;8.00;1.00;;;;;;5054051;28;19982;-76
2021/10/27 18:49:31;;;;;;;;;;;8.00;1.00;;;;;;5050860;28;19966;-75
2021/10/27 18:57:16;;;;;;;;;;;8.00;1.00;;;;;;5051803;28;19952;-76
2021/10/27 18:59:46;;;;;;;;;;;8.00;1.00;;;;;;5048909;28;19964;-76
2021/10/27 19:02:16;;;;;;;;;;;8.10;1.00;;;;;;5050059;28;19963;-76
2021/10/27 19:12:59;;;;;;;;;;;8.10;1.00;;;;;;5062397;28;19935;-76
2021/10/27 19:15:29;;;;;;;;;;;8.10;1.00;;;;;;5051481;28;20369;-75
2021/10/27 19:17:54;;;;;;;;;;;8.10;1.00;;;;;;5053182;28;19948;-75
2021/10/27 19:20:21;;;;;;;;;;;8.20;1.00;;;;;;5050744;28;20438;-76
2021/10/27 19:22:47;;;;;;;;;;;8.20;1.00;;;;;;5049459;28;19912;-77
2021/10/27 20:09:24;;;;;;;;;;;7.80;1.00;;;;;;5061883;28;20085;-75
2021/10/27 20:14:19;;;;;;;;;;;7.80;1.00;;;;;;5056095;28;19979;-75
2021/10/27 20:49:29;;;;;;;;;;;8.30;1.00;;;;;;5045893;28;19920;-75
2021/10/27 20:52:09;;;;;;;;;;;8.30;1.00;;;;;;5044296;28;20345;-75
2021/10/27 20:54:35;;;;;;;;;;;8.20;1.00;;;;;;5049552;28;19909;-76
2021/10/27 20:57:05;;;;;;;;;;;8.30;1.00;;;;;;5049896;28;20349;-75
2021/10/27 20:59:46;;;;;;;;;;;8.30;1.00;;;;;;5048886;28;20325;-76
2021/10/27 21:02:42;;;;;;;;;;;8.30;1.00;;;;;;5048348;28;20368;-74
2021/10/27 21:13:21;;;;;;;;;;;8.50;1.00;;;;;;5028872;28;20056;-76
2021/10/27 21:15:47;;;;;;;;;;;8.40;1.00;;;;;;5040018;28;20019;-75
2021/10/27 21:18:12;;;;;;;;;;;8.50;1.00;;;;;;5047358;28;20016;-75
2021/10/27 21:20:38;;;;;;;;;;;8.50;1.00;;;;;;5047115;28;20014;-76
2021/10/27 21:23:04;;;;;;;;;;;8.50;1.00;;;;;;5046017;28;19909;-76
2021/10/27 21:25:32;;;;;;;;;;;8.50;1.00;;;;;;5047726;28;19916;-74
2021/10/27 21:30:52;;;;;;;;;;;8.60;1.00;;;;;;5048236;28;19919;-77
2021/10/27 21:44:05;;;;;;;;;;;8.60;1.00;;;;;;5047506;28;19962;-76
2021/10/27 21:46:31;;;;;;;;;;;8.50;1.00;;;;;;5051852;28;19912;-77
2021/10/27 21:48:56;;;;;;;;;;;8.50;1.00;;;;;;5051722;28;20380;-77
2021/10/27 21:51:24;;;;;;;;;;;8.60;1.00;;;;;;5050989;28;19952;-76
2021/10/27 21:53:50;;;;;;;;;;;8.70;1.00;;;;;;5032907;28;19908;-76